Nowshera Weather



Nowshera's Current Weather

Temprature 21o haze

haze

Rain: 0 %

Min Temprature21o
Max Temprature21o
Humidity73
Wind Speed4.1 m/h
Sun Rise05:34:26
Sun Set18:46:58
Current Time: 21-Apr-2019 05:28:09
Lat/Lon: 34.02, 71.98




Nowshera's Geo Location



Nowshera's Weather Forecast

Time Overall Temp Min Temp Max Temp Humidity Wind Speed Rain
21-Apr-2019 (Sun)
08:00:00 broken clouds 23.440 23.440 26.179 30 1.76 m/h 0 %
11:00:00 broken clouds 28.830 28.830 30.650 21 1.61 m/h 0 %
14:00:00 clear sky 32.640 32.640 33.550 18 1.65 m/h 0 %
17:00:00 few clouds 33.350 33.350 33.350 20 2.16 m/h 0 %
20:00:00 broken clouds 30.750 30.750 30.750 25 1.38 m/h 0 %
23:00:00 broken clouds 28.630 28.630 28.630 27 1.39 m/h 0 %
22-Apr-2019 (Mon)
02:00:00 broken clouds 27.170 27.170 27.170 29 1.48 m/h 0 %
05:00:00 scattered clouds 25.844 25.844 25.844 33 1.1 m/h 0 %
08:00:00 clear sky 27.846 27.846 27.846 30 1.83 m/h 0 %
11:00:00 clear sky 32.020 32.020 32.020 23 1.83 m/h 0 %
14:00:00 clear sky 35.015 35.015 35.015 19 2.05 m/h 0 %
17:00:00 clear sky 35.431 35.431 35.431 19 2.53 m/h 0 %
20:00:00 clear sky 32.550 32.550 32.550 22 2.4 m/h 0 %
23:00:00 few clouds 30.196 30.196 30.196 25 0.92 m/h 0 %
23-Apr-2019 (Tue)
02:00:00 scattered clouds 28.177 28.177 28.177 28 1.82 m/h 0 %
05:00:00 broken clouds 26.946 26.946 26.946 30 1.91 m/h 0 %
08:00:00 overcast clouds 28.607 28.607 28.607 28 2.04 m/h 0 %
11:00:00 overcast clouds 33.250 33.250 33.250 21 2.13 m/h 0 %
14:00:00 few clouds 36.250 36.250 36.250 17 2.41 m/h 0 %
17:00:00 scattered clouds 36.850 36.850 36.850 15 3.04 m/h 0 %
20:00:00 broken clouds 33.928 33.928 33.928 19 2.26 m/h 0 %
23:00:00 overcast clouds 30.950 30.950 30.950 24 1.35 m/h 0 %
24-Apr-2019 (Wed)
02:00:00 overcast clouds 28.582 28.582 28.582 31 3.78 m/h 0 %
05:00:00 overcast clouds 26.804 26.804 26.804 38 2.08 m/h 0 %
08:00:00 overcast clouds 27.850 27.850 27.850 35 1.86 m/h 0 %
11:00:00 broken clouds 32.009 32.009 32.009 23 2.99 m/h 0 %
14:00:00 overcast clouds 33.150 33.150 33.150 22 4.36 m/h 0 %
17:00:00 light rain 26.750 26.750 26.750 46 5.28 m/h 50 %
20:00:00 overcast clouds 26.155 26.155 26.155 44 3.38 m/h 0 %
23:00:00 overcast clouds 26.045 26.045 26.045 43 2.15 m/h 0 %
25-Apr-2019 (Thu)
02:00:00 broken clouds 24.550 24.550 24.550 47 1.73 m/h 0 %
05:00:00 scattered clouds 23.912 23.912 23.912 46 2.7 m/h 0 %
08:00:00 clear sky 26.220 26.220 26.220 38 2.01 m/h 0 %
11:00:00 clear sky 30.990 30.990 30.990 27 2.29 m/h 0 %
14:00:00 clear sky 35.050 35.050 35.050 12 3.01 m/h 0 %
17:00:00 clear sky 36.411 36.411 36.411 6 4.69 m/h 0 %
20:00:00 clear sky 32.025 32.025 32.025 12 2.38 m/h 0 %
23:00:00 clear sky 29.343 29.343 29.343 15 1.02 m/h 0 %
26-Apr-2019 (Fri)
02:00:00 clear sky 26.332 26.332 26.332 27 2.47 m/h 0 %
05:00:00 clear sky 24.846 24.846 24.846 30 1.88 m/h 0 %

Famous Cities (60)